sensor_id;sensor_type;location;lat;lon;timestamp;pressure;altitude;pressure_sealevel;temperature;humidity
75146;BME280;63641;46.526;24.612;2023-02-15T00:02:00;98617.47;;;2.27;72.67
75146;BME280;63641;46.526;24.612;2023-02-15T00:04:27;98621.22;;;2.32;72.58
75146;BME280;63641;46.526;24.612;2023-02-15T00:07:18;98625.09;;;2.30;72.34
75146;BME280;63641;46.526;24.612;2023-02-15T00:09:46;98623.69;;;2.34;72.54
75146;BME280;63641;46.526;24.612;2023-02-15T00:12:14;98619.53;;;2.31;72.51
75146;BME280;63641;46.526;24.612;2023-02-15T00:14:41;98635.19;;;2.34;72.27
75146;BME280;63641;46.526;24.612;2023-02-15T00:17:08;98638.69;;;2.35;72.29
75146;BME280;63641;46.526;24.612;2023-02-15T00:19:35;98625.16;;;2.36;72.38
75146;BME280;63641;46.526;24.612;2023-02-15T00:22:02;98638.28;;;2.38;72.08
75146;BME280;63641;46.526;24.612;2023-02-15T00:24:28;98644.44;;;2.38;72.48
75146;BME280;63641;46.526;24.612;2023-02-15T00:26:55;98637.47;;;2.37;72.41
75146;BME280;63641;46.526;24.612;2023-02-15T00:29:22;98629.84;;;2.34;72.33
75146;BME280;63641;46.526;24.612;2023-02-15T00:31:49;98634.16;;;2.35;72.67
75146;BME280;63641;46.526;24.612;2023-02-15T00:34:22;98636.81;;;2.35;72.44
75146;BME280;63641;46.526;24.612;2023-02-15T00:36:49;98633.53;;;2.33;72.25
75146;BME280;63641;46.526;24.612;2023-02-15T00:39:17;98632.34;;;2.36;72.47
75146;BME280;63641;46.526;24.612;2023-02-15T00:41:57;98637.84;;;2.34;72.43
75146;BME280;63641;46.526;24.612;2023-02-15T00:44:24;98638.88;;;2.33;72.54
75146;BME280;63641;46.526;24.612;2023-02-15T00:46:51;98637.03;;;2.34;72.51
75146;BME280;63641;46.526;24.612;2023-02-15T00:49:18;98641.13;;;2.30;72.70
75146;BME280;63641;46.526;24.612;2023-02-15T00:51:44;98647.72;;;2.34;72.81
75146;BME280;63641;46.526;24.612;2023-02-15T00:54:11;98633.34;;;2.35;72.38
75146;BME280;63641;46.526;24.612;2023-02-15T00:56:38;98629.66;;;2.36;72.26
75146;BME280;63641;46.526;24.612;2023-02-15T00:59:04;98622.47;;;2.36;72.68
75146;BME280;63641;46.526;24.612;2023-02-15T01:01:31;98632.94;;;2.38;72.29
75146;BME280;63641;46.526;24.612;2023-02-15T01:03:58;98628.63;;;2.37;72.57
75146;BME280;63641;46.526;24.612;2023-02-15T01:06:25;98618.53;;;2.32;72.35
75146;BME280;63641;46.526;24.612;2023-02-15T01:08:52;98620.41;;;2.38;72.27
75146;BME280;63641;46.526;24.612;2023-02-15T01:11:21;98617.56;;;2.40;72.16
75146;BME280;63641;46.526;24.612;2023-02-15T01:13:54;98618.38;;;2.40;72.33
75146;BME280;63641;46.526;24.612;2023-02-15T01:16:23;98616.53;;;2.41;72.25
75146;BME280;63641;46.526;24.612;2023-02-15T01:18:51;98609.34;;;2.41;72.09
75146;BME280;63641;46.526;24.612;2023-02-15T01:21:21;98606.66;;;2.41;72.19
75146;BME280;63641;46.526;24.612;2023-02-15T01:23:49;98603.56;;;2.38;72.15
75146;BME280;63641;46.526;24.612;2023-02-15T01:26:16;98608.72;;;2.39;72.23
75146;BME280;63641;46.526;24.612;2023-02-15T01:28:43;98601.53;;;2.40;72.36
75146;BME280;63641;46.526;24.612;2023-02-15T01:31:18;98598.88;;;2.40;72.08
75146;BME280;63641;46.526;24.612;2023-02-15T01:33:46;98599.25;;;2.37;72.11
75146;BME280;63641;46.526;24.612;2023-02-15T01:36:14;98599.88;;;2.39;72.04
75146;BME280;63641;46.526;24.612;2023-02-15T01:38:40;98596.59;;;2.37;72.36
75146;BME280;63641;46.526;24.612;2023-02-15T01:41:08;98595.56;;;2.38;72.09
75146;BME280;63641;46.526;24.612;2023-02-15T01:43:55;98603.38;;;2.39;72.22
75146;BME280;63641;46.526;24.612;2023-02-15T01:46:27;98600.91;;;2.38;72.21
75146;BME280;63641;46.526;24.612;2023-02-15T01:49:14;98594.53;;;2.39;72.07
75146;BME280;63641;46.526;24.612;2023-02-15T01:51:43;98589.59;;;2.36;72.17
75146;BME280;63641;46.526;24.612;2023-02-15T01:56:52;98595.94;;;2.35;72.09
75146;BME280;63641;46.526;24.612;2023-02-15T01:59:21;98590.81;;;2.33;72.15
75146;BME280;63641;46.526;24.612;2023-02-15T02:01:52;98592.03;;;2.31;72.31
75146;BME280;63641;46.526;24.612;2023-02-15T02:04:41;98587.06;;;2.28;72.36
75146;BME280;63641;46.526;24.612;2023-02-15T02:07:09;98590.53;;;2.22;72.48
75146;BME280;63641;46.526;24.612;2023-02-15T02:09:38;98597.31;;;2.17;72.71
75146;BME280;63641;46.526;24.612;2023-02-15T02:12:06;98585.97;;;2.15;72.55
75146;BME280;63641;46.526;24.612;2023-02-15T02:14:33;98592.56;;;2.20;72.42
75146;BME280;63641;46.526;24.612;2023-02-15T02:17:13;98590.94;;;2.18;72.69
75146;BME280;63641;46.526;24.612;2023-02-15T02:20:26;98593.38;;;2.20;72.53
75146;BME280;63641;46.526;24.612;2023-02-15T02:36:24;98585.97;;;2.15;72.08
75146;BME280;63641;46.526;24.612;2023-02-15T02:44:43;98593.59;;;2.18;72.27
75146;BME280;63641;46.526;24.612;2023-02-15T02:50:08;98593.78;;;2.17;72.13
75146;BME280;63641;46.526;24.612;2023-02-15T02:52:42;98598.72;;;2.20;71.98
75146;BME280;63641;46.526;24.612;2023-02-15T02:57:46;98595.88;;;2.22;71.79
75146;BME280;63641;46.526;24.612;2023-02-15T03:00:17;98588.06;;;2.20;71.83
75146;BME280;63641;46.526;24.612;2023-02-15T03:02:47;98585.59;;;2.18;72.06
75146;BME280;63641;46.526;24.612;2023-02-15T03:05:18;98597.91;;;2.20;71.99
75146;BME280;63641;46.526;24.612;2023-02-15T03:07:49;98600.59;;;2.20;71.98
75146;BME280;63641;46.526;24.612;2023-02-15T03:10:20;98596.28;;;2.18;72.28
75146;BME280;63641;46.526;24.612;2023-02-15T03:12:48;98604.91;;;2.21;72.26
75146;BME280;63641;46.526;24.612;2023-02-15T03:15:20;98604.28;;;2.18;72.28
75146;BME280;63641;46.526;24.612;2023-02-15T03:17:53;98606.31;;;2.16;71.93
75146;BME280;63641;46.526;24.612;2023-02-15T03:20:22;98616.59;;;2.20;72.12
75146;BME280;63641;46.526;24.612;2023-02-15T03:22:55;98610.84;;;2.16;72.23
75146;BME280;63641;46.526;24.612;2023-02-15T03:25:32;98609.81;;;2.17;71.94
75146;BME280;63641;46.526;24.612;2023-02-15T03:28:03;98603.19;;;2.13;72.02
75146;BME280;63641;46.526;24.612;2023-02-15T03:30:34;98604.03;;;2.13;72.22
75146;BME280;63641;46.526;24.612;2023-02-15T03:33:02;98612.44;;;2.10;72.13
75146;BME280;63641;46.526;24.612;2023-02-15T03:35:39;98621.28;;;2.11;72.47
75146;BME280;63641;46.526;24.612;2023-02-15T03:38:13;98611.81;;;2.08;72.45
75146;BME280;63641;46.526;24.612;2023-02-15T03:40:45;98616.75;;;2.11;72.36
75146;BME280;63641;46.526;24.612;2023-02-15T03:43:49;98618.84;;;2.16;72.27
75146;BME280;63641;46.526;24.612;2023-02-15T03:46:39;98625.38;;;2.13;72.16
75146;BME280;63641;46.526;24.612;2023-02-15T03:49:17;98619.22;;;2.13;72.25
75146;BME280;63641;46.526;24.612;2023-02-15T03:51:48;98626.41;;;2.12;72.03
75146;BME280;63641;46.526;24.612;2023-02-15T03:54:25;98614.69;;;2.07;72.30
75146;BME280;63641;46.526;24.612;2023-02-15T03:57:26;98617.53;;;2.05;72.09
75146;BME280;63641;46.526;24.612;2023-02-15T04:00:24;98617.75;;;2.04;72.52
75146;BME280;63641;46.526;24.612;2023-02-15T04:05:44;98627.38;;;2.05;72.32
75146;BME280;63641;46.526;24.612;2023-02-15T04:08:12;98622.06;;;2.05;72.06
75146;BME280;63641;46.526;24.612;2023-02-15T04:10:39;98636.66;;;2.09;72.11
75146;BME280;63641;46.526;24.612;2023-02-15T04:13:33;98635.25;;;2.13;72.10
75146;BME280;63641;46.526;24.612;2023-02-15T04:15:59;98629.47;;;2.09;72.09
75146;BME280;63641;46.526;24.612;2023-02-15T04:18:32;98631.16;;;2.10;71.83
75146;BME280;63641;46.526;24.612;2023-02-15T04:21:18;98638.50;;;2.08;72.19
75146;BME280;63641;46.526;24.612;2023-02-15T04:24:04;98640.75;;;2.05;72.15
75146;BME280;63641;46.526;24.612;2023-02-15T04:26:50;98636.59;;;2.02;71.93
75146;BME280;63641;46.526;24.612;2023-02-15T04:29:20;98639.91;;;2.04;72.17
75146;BME280;63641;46.526;24.612;2023-02-15T04:31:47;98642.78;;;2.03;72.24
75146;BME280;63641;46.526;24.612;2023-02-15T04:34:15;98656.97;;;2.03;72.10
75146;BME280;63641;46.526;24.612;2023-02-15T04:36:42;98650.81;;;2.03;72.18
75146;BME280;63641;46.526;24.612;2023-02-15T04:39:12;98654.91;;;2.05;72.31
75146;BME280;63641;46.526;24.612;2023-02-15T04:41:39;98655.56;;;2.07;72.20
75146;BME280;63641;46.526;24.612;2023-02-15T04:44:06;98652.88;;;2.07;72.09
75146;BME280;63641;46.526;24.612;2023-02-15T04:46:33;98648.38;;;2.08;72.00
75146;BME280;63641;46.526;24.612;2023-02-15T04:48:59;98654.53;;;2.08;71.96
75146;BME280;63641;46.526;24.612;2023-02-15T04:51:26;98647.94;;;2.04;71.94
75146;BME280;63641;46.526;24.612;2023-02-15T04:53:53;98653.91;;;2.06;71.94
75146;BME280;63641;46.526;24.612;2023-02-15T04:56:20;98656.75;;;2.05;72.37
75146;BME280;63641;46.526;24.612;2023-02-15T04:58:47;98657.78;;;2.04;72.12
75146;BME280;63641;46.526;24.612;2023-02-15T05:01:14;98662.31;;;2.03;71.93
75146;BME280;63641;46.526;24.612;2023-02-15T05:03:41;98657.34;;;2.00;71.98
75146;BME280;63641;46.526;24.612;2023-02-15T05:06:07;98661.03;;;1.99;71.93
75146;BME280;63641;46.526;24.612;2023-02-15T05:08:34;98665.50;;;1.92;72.43
75146;BME280;63641;46.526;24.612;2023-02-15T05:11:01;98661.75;;;1.86;72.21
75146;BME280;63641;46.526;24.612;2023-02-15T05:13:28;98664.63;;;1.85;72.40
75146;BME280;63641;46.526;24.612;2023-02-15T05:15:55;98672.03;;;1.89;72.41
75146;BME280;63641;46.526;24.612;2023-02-15T05:18:22;98670.19;;;1.90;72.27
75146;BME280;63641;46.526;24.612;2023-02-15T05:20:49;98669.75;;;1.86;72.20
75146;BME280;63641;46.526;24.612;2023-02-15T05:23:15;98674.50;;;1.91;72.30
75146;BME280;63641;46.526;24.612;2023-02-15T05:25:49;98667.34;;;1.91;71.68
75146;BME280;63641;46.526;24.612;2023-02-15T05:28:36;98677.06;;;1.99;71.95
75146;BME280;63641;46.526;24.612;2023-02-15T05:33:33;98687.75;;;1.99;71.73
75146;BME280;63641;46.526;24.612;2023-02-15T05:36:01;98698.41;;;1.99;71.92
75146;BME280;63641;46.526;24.612;2023-02-15T05:38:29;98689.75;;;1.97;71.94
75146;BME280;63641;46.526;24.612;2023-02-15T05:40:56;98707.63;;;1.97;72.08
75146;BME280;63641;46.526;24.612;2023-02-15T05:43:23;98708.25;;;1.99;71.61
75146;BME280;63641;46.526;24.612;2023-02-15T05:45:52;98708.25;;;1.99;71.46
75146;BME280;63641;46.526;24.612;2023-02-15T05:48:20;98718.97;;;2.05;71.82
75146;BME280;63641;46.526;24.612;2023-02-15T05:50:59;98707.03;;;2.01;71.39
75146;BME280;63641;46.526;24.612;2023-02-15T05:53:27;98714.81;;;1.96;71.38
75146;BME280;63641;46.526;24.612;2023-02-15T05:55:55;98709.84;;;1.93;71.68
75146;BME280;63641;46.526;24.612;2023-02-15T05:58:27;98715.19;;;1.93;71.46
75146;BME280;63641;46.526;24.612;2023-02-15T06:00:55;98711.31;;;1.96;71.49
75146;BME280;63641;46.526;24.612;2023-02-15T06:03:22;98714.00;;;1.96;71.36
75146;BME280;63641;46.526;24.612;2023-02-15T06:05:49;98720.59;;;2.00;71.44
75146;BME280;63641;46.526;24.612;2023-02-15T06:08:16;98720.38;;;2.01;70.95
75146;BME280;63641;46.526;24.612;2023-02-15T06:10:47;98724.97;;;2.07;71.02
75146;BME280;63641;46.526;24.612;2023-02-15T06:13:13;98734.84;;;2.13;71.03
75146;BME280;63641;46.526;24.612;2023-02-15T06:15:40;98735.50;;;2.15;70.78
75146;BME280;63641;46.526;24.612;2023-02-15T06:18:07;98734.69;;;2.15;70.88
75146;BME280;63641;46.526;24.612;2023-02-15T06:20:34;98733.44;;;2.11;70.53
75146;BME280;63641;46.526;24.612;2023-02-15T06:23:01;98735.88;;;2.12;70.87
75146;BME280;63641;46.526;24.612;2023-02-15T06:25:27;98736.53;;;2.14;70.76
75146;BME280;63641;46.526;24.612;2023-02-15T06:27:55;98737.53;;;2.13;70.61
75146;BME280;63641;46.526;24.612;2023-02-15T06:30:22;98744.16;;;2.17;70.79
75146;BME280;63641;46.526;24.612;2023-02-15T06:32:49;98746.44;;;2.21;70.41
75146;BME280;63641;46.526;24.612;2023-02-15T06:35:16;98734.75;;;2.22;70.44
75146;BME280;63641;46.526;24.612;2023-02-15T06:37:45;98726.91;;;2.20;70.50
75146;BME280;63641;46.526;24.612;2023-02-15T06:40:12;98729.84;;;2.25;70.32
75146;BME280;63641;46.526;24.612;2023-02-15T06:42:39;98735.19;;;2.25;70.17
75146;BME280;63641;46.526;24.612;2023-02-15T06:45:06;98738.53;;;2.34;70.34
75146;BME280;63641;46.526;24.612;2023-02-15T06:47:34;98746.75;;;2.32;70.02
75146;BME280;63641;46.526;24.612;2023-02-15T06:50:00;98744.69;;;2.34;70.12
75146;BME280;63641;46.526;24.612;2023-02-15T06:52:27;98755.22;;;2.36;70.13
75146;BME280;63641;46.526;24.612;2023-02-15T06:54:55;98736.25;;;2.31;70.24
75146;BME280;63641;46.526;24.612;2023-02-15T06:57:22;98747.44;;;2.41;70.17
75146;BME280;63641;46.526;24.612;2023-02-15T06:59:49;98750.31;;;2.46;69.93
75146;BME280;63641;46.526;24.612;2023-02-15T07:02:16;98744.38;;;2.44;69.79
75146;BME280;63641;46.526;24.612;2023-02-15T07:04:43;98741.44;;;2.39;69.79
75146;BME280;63641;46.526;24.612;2023-02-15T07:07:12;98748.44;;;2.40;70.05
75146;BME280;63641;46.526;24.612;2023-02-15T07:09:39;98742.09;;;2.41;69.64
75146;BME280;63641;46.526;24.612;2023-02-15T07:12:06;98742.91;;;2.41;69.68
75146;BME280;63641;46.526;24.612;2023-02-15T07:14:52;98738.00;;;2.45;69.30
75146;BME280;63641;46.526;24.612;2023-02-15T07:17:19;98742.31;;;2.46;69.37
75146;BME280;63641;46.526;24.612;2023-02-15T07:20:06;98741.94;;;2.49;69.62
75146;BME280;63641;46.526;24.612;2023-02-15T07:22:35;98735.56;;;2.50;69.37
75146;BME280;63641;46.526;24.612;2023-02-15T07:25:03;98729.22;;;2.51;69.15
75146;BME280;63641;46.526;24.612;2023-02-15T07:27:30;98725.31;;;2.54;69.30
75146;BME280;63641;46.526;24.612;2023-02-15T07:29:58;98730.66;;;2.54;69.12
75146;BME280;63641;46.526;24.612;2023-02-15T07:32:29;98731.50;;;2.54;69.35
75146;BME280;63641;46.526;24.612;2023-02-15T07:34:57;98727.81;;;2.55;69.18
75146;BME280;63641;46.526;24.612;2023-02-15T07:37:24;98736.44;;;2.57;69.27
75146;BME280;63641;46.526;24.612;2023-02-15T07:39:51;98738.94;;;2.59;69.08
75146;BME280;63641;46.526;24.612;2023-02-15T07:42:17;98740.97;;;2.57;69.05
75146;BME280;63641;46.526;24.612;2023-02-15T07:44:46;98725.13;;;2.55;69.28
75146;BME280;63641;46.526;24.612;2023-02-15T07:47:13;98730.84;;;2.52;69.29
75146;BME280;63641;46.526;24.612;2023-02-15T07:49:40;98730.84;;;2.52;69.46
75146;BME280;63641;46.526;24.612;2023-02-15T07:52:07;98734.56;;;2.51;69.38
75146;BME280;63641;46.526;24.612;2023-02-15T07:54:33;98735.81;;;2.55;69.26
75146;BME280;63641;46.526;24.612;2023-02-15T07:57:01;98738.09;;;2.58;69.13
75146;BME280;63641;46.526;24.612;2023-02-15T07:59:28;98738.34;;;2.63;69.00
75146;BME280;63641;46.526;24.612;2023-02-15T08:01:55;98740.78;;;2.65;68.85
75146;BME280;63641;46.526;24.612;2023-02-15T08:04:23;98739.81;;;2.66;68.89
75146;BME280;63641;46.526;24.612;2023-02-15T08:06:52;98739.59;;;2.67;68.86
75146;BME280;63641;46.526;24.612;2023-02-15T08:09:21;98742.91;;;2.70;68.80
75146;BME280;63641;46.526;24.612;2023-02-15T08:11:48;98743.72;;;2.70;68.92
75146;BME280;63641;46.526;24.612;2023-02-15T08:14:21;98729.28;;;2.64;68.61
75146;BME280;63641;46.526;24.612;2023-02-15T08:16:52;98743.94;;;2.75;68.91
75146;BME280;63641;46.526;24.612;2023-02-15T08:19:25;98744.22;;;2.80;68.39
75146;BME280;63641;46.526;24.612;2023-02-15T08:21:54;98739.88;;;2.79;68.22
75146;BME280;63641;46.526;24.612;2023-02-15T08:24:26;98745.84;;;2.81;68.30
75146;BME280;63641;46.526;24.612;2023-02-15T08:26:54;98740.50;;;2.81;68.45
75146;BME280;63641;46.526;24.612;2023-02-15T08:29:23;98744.22;;;2.87;68.28
75146;BME280;63641;46.526;24.612;2023-02-15T08:31:56;98748.38;;;2.89;68.28
75146;BME280;63641;46.526;24.612;2023-02-15T08:34:25;98746.13;;;2.93;68.34
75146;BME280;63641;46.526;24.612;2023-02-15T08:36:52;98750.66;;;2.93;68.14
75146;BME280;63641;46.526;24.612;2023-02-15T08:39:21;98750.44;;;2.94;68.44
75146;BME280;63641;46.526;24.612;2023-02-15T08:41:51;98745.94;;;2.95;68.35
75146;BME280;63641;46.526;24.612;2023-02-15T08:44:19;98752.09;;;2.95;68.11
75146;BME280;63641;46.526;24.612;2023-02-15T08:46:47;98750.44;;;2.94;68.31
75146;BME280;63641;46.526;24.612;2023-02-15T08:49:21;98749.19;;;2.90;68.28
75146;BME280;63641;46.526;24.612;2023-02-15T08:51:48;98754.91;;;2.87;68.35
75146;BME280;63641;46.526;24.612;2023-02-15T08:54:18;98756.59;;;2.88;68.18
75146;BME280;63641;46.526;24.612;2023-02-15T08:56:45;98753.09;;;2.87;68.28
75146;BME280;63641;46.526;24.612;2023-02-15T08:59:15;98761.94;;;2.88;68.10
75146;BME280;63641;46.526;24.612;2023-02-15T09:01:43;98756.78;;;2.86;68.59
75146;BME280;63641;46.526;24.612;2023-02-15T09:04:10;98760.47;;;2.85;68.19
75146;BME280;63641;46.526;24.612;2023-02-15T09:06:47;98760.09;;;2.88;68.43
75146;BME280;63641;46.526;24.612;2023-02-15T09:09:16;98767.06;;;2.89;68.12
75146;BME280;63641;46.526;24.612;2023-02-15T09:11:45;98765.03;;;2.92;68.55
75146;BME280;63641;46.526;24.612;2023-02-15T09:14:25;98756.63;;;2.95;68.07
75146;BME280;63641;46.526;24.612;2023-02-15T09:16:53;98759.72;;;2.98;68.36
75146;BME280;63641;46.526;24.612;2023-02-15T09:19:27;98747.00;;;3.00;68.14
75146;BME280;63641;46.526;24.612;2023-02-15T09:22:02;98751.16;;;3.09;68.29
75146;BME280;63641;46.526;24.612;2023-02-15T09:24:50;98753.03;;;3.15;67.61
75146;BME280;63641;46.526;24.612;2023-02-15T09:27:16;98744.81;;;3.24;67.55
75146;BME280;63641;46.526;24.612;2023-02-15T09:29:51;98734.13;;;3.24;67.64
75146;BME280;63641;46.526;24.612;2023-02-15T09:32:32;98745.94;;;3.36;67.54
75146;BME280;63641;46.526;24.612;2023-02-15T09:35:06;98748.19;;;3.39;67.32
75146;BME280;63641;46.526;24.612;2023-02-15T09:37:32;98739.97;;;3.41;67.10
75146;BME280;63641;46.526;24.612;2023-02-15T09:39:59;98738.09;;;3.41;67.21
75146;BME280;63641;46.526;24.612;2023-02-15T09:42:58;98734.63;;;3.47;66.91
75146;BME280;63641;46.526;24.612;2023-02-15T09:46:01;98739.81;;;3.55;66.61
75146;BME280;63641;46.526;24.612;2023-02-15T09:48:43;98735.69;;;3.59;66.79
75146;BME280;63641;46.526;24.612;2023-02-15T09:51:32;98732.22;;;3.66;66.75
75146;BME280;63641;46.526;24.612;2023-02-15T09:54:15;98728.50;;;3.67;66.33
75146;BME280;63641;46.526;24.612;2023-02-15T09:56:57;98730.78;;;3.70;66.35
75146;BME280;63641;46.526;24.612;2023-02-15T10:11:34;98707.94;;;3.74;65.98
75146;BME280;63641;46.526;24.612;2023-02-15T10:22:37;98704.69;;;3.92;65.73
75146;BME280;63641;46.526;24.612;2023-02-15T10:28:00;98707.13;;;3.93;65.79
75146;BME280;63641;46.526;24.612;2023-02-15T10:30:46;98713.72;;;3.97;65.77
75146;BME280;63641;46.526;24.612;2023-02-15T10:33:42;98699.31;;;3.98;65.68
75146;BME280;63641;46.526;24.612;2023-02-15T10:36:32;98701.56;;;4.01;65.57
75146;BME280;63641;46.526;24.612;2023-02-15T10:39:26;98691.47;;;3.97;65.30
75146;BME280;63641;46.526;24.612;2023-02-15T10:42:06;98701.16;;;4.04;65.50
75146;BME280;63641;46.526;24.612;2023-02-15T10:50:27;98683.25;;;4.11;65.32
75146;BME280;63641;46.526;24.612;2023-02-15T10:56:25;98684.28;;;4.17;64.91
75146;BME280;63641;46.526;24.612;2023-02-15T11:02:02;98679.94;;;4.23;64.98
75146;BME280;63641;46.526;24.612;2023-02-15T11:07:24;98687.16;;;4.29;64.75
75146;BME280;63641;46.526;24.612;2023-02-15T11:09:59;98680.34;;;4.33;64.65
75146;BME280;63641;46.526;24.612;2023-02-15T11:12:34;98677.06;;;4.31;64.31
75146;BME280;63641;46.526;24.612;2023-02-15T11:23:28;98683.03;;;4.26;64.59
75146;BME280;63641;46.526;24.612;2023-02-15T11:25:58;98678.72;;;4.25;64.54
75146;BME280;63641;46.526;24.612;2023-02-15T11:28:39;98668.00;;;4.19;64.29
75146;BME280;63641;46.526;24.612;2023-02-15T11:31:21;98661.81;;;4.18;64.43
75146;BME280;63641;46.526;24.612;2023-02-15T11:34:05;98657.69;;;4.22;64.22
75146;BME280;63641;46.526;24.612;2023-02-15T11:36:45;98667.19;;;4.18;64.19
75146;BME280;63641;46.526;24.612;2023-02-15T11:39:16;98663.25;;;4.14;64.40
75146;BME280;63641;46.526;24.612;2023-02-15T11:41:50;98658.72;;;4.15;64.38
75146;BME280;63641;46.526;24.612;2023-02-15T11:46:59;98658.91;;;4.26;64.01
75146;BME280;63641;46.526;24.612;2023-02-15T11:49:35;98657.06;;;4.33;63.73
75146;BME280;63641;46.526;24.612;2023-02-15T11:52:05;98647.38;;;4.26;63.68
75146;BME280;63641;46.526;24.612;2023-02-15T11:54:36;98661.59;;;4.33;63.75
75146;BME280;63641;46.526;24.612;2023-02-15T11:57:15;98662.22;;;4.35;63.80
75146;BME280;63641;46.526;24.612;2023-02-15T11:59:50;98656.03;;;4.34;63.62
75146;BME280;63641;46.526;24.612;2023-02-15T12:02:26;98653.97;;;4.30;63.55
75146;BME280;63641;46.526;24.612;2023-02-15T12:04:58;98651.50;;;4.35;63.55
75146;BME280;63641;46.526;24.612;2023-02-15T12:07:42;98650.25;;;4.38;63.41
75146;BME280;63641;46.526;24.612;2023-02-15T12:10:19;98641.38;;;4.37;63.28
75146;BME280;63641;46.526;24.612;2023-02-15T12:13:17;98636.66;;;4.39;63.11
75146;BME280;63641;46.526;24.612;2023-02-15T12:15:54;98636.66;;;4.39;63.02
75146;BME280;63641;46.526;24.612;2023-02-15T12:18:40;98625.06;;;4.45;63.06
75146;BME280;63641;46.526;24.612;2023-02-15T12:21:14;98628.81;;;4.44;62.92
75146;BME280;63641;46.526;24.612;2023-02-15T12:23:51;98617.66;;;4.47;63.07
75146;BME280;63641;46.526;24.612;2023-02-15T12:26:34;98616.38;;;4.56;62.95
75146;BME280;63641;46.526;24.612;2023-02-15T12:29:22;98614.91;;;4.67;62.39
75146;BME280;63641;46.526;24.612;2023-02-15T12:32:05;98619.03;;;4.70;62.39
75146;BME280;63641;46.526;24.612;2023-02-15T12:34:43;98615.94;;;4.73;62.18
75146;BME280;63641;46.526;24.612;2023-02-15T12:37:26;98609.28;;;4.82;62.09
75146;BME280;63641;46.526;24.612;2023-02-15T12:40:17;98610.53;;;4.86;62.00
75146;BME280;63641;46.526;24.612;2023-02-15T12:42:45;98613.97;;;4.93;61.94
75146;BME280;63641;46.526;24.612;2023-02-15T12:45:26;98621.44;;;4.91;61.51
75146;BME280;63641;46.526;24.612;2023-02-15T12:50:51;98607.66;;;4.74;61.93
75146;BME280;63641;46.526;24.612;2023-02-15T12:53:34;98607.88;;;4.79;61.80
75146;BME280;63641;46.526;24.612;2023-02-15T12:56:10;98610.13;;;4.82;61.64
75146;BME280;63641;46.526;24.612;2023-02-15T12:58:39;98602.69;;;4.84;61.61
75146;BME280;63641;46.526;24.612;2023-02-15T13:01:19;98602.03;;;4.89;61.54
75146;BME280;63641;46.526;24.612;2023-02-15T13:04:04;98605.94;;;4.93;61.49
75146;BME280;63641;46.526;24.612;2023-02-15T13:06:36;98604.09;;;4.94;61.39
75146;BME280;63641;46.526;24.612;2023-02-15T13:09:20;98598.69;;;5.00;61.04
75146;BME280;63641;46.526;24.612;2023-02-15T13:11:47;98605.28;;;5.04;61.22
75146;BME280;63641;46.526;24.612;2023-02-15T13:14:24;98595.31;;;5.12;60.84
75146;BME280;63641;46.526;24.612;2023-02-15T13:16:56;98590.16;;;5.17;60.75
75146;BME280;63641;46.526;24.612;2023-02-15T13:19:53;98600.03;;;5.23;60.37
75146;BME280;63641;46.526;24.612;2023-02-15T13:22:33;98597.50;;;5.28;60.46
75146;BME280;63641;46.526;24.612;2023-02-15T13:25:28;98600.59;;;5.31;60.22
75146;BME280;63641;46.526;24.612;2023-02-15T13:28:01;98597.09;;;5.31;60.16
75146;BME280;63641;46.526;24.612;2023-02-15T13:30:32;98588.78;;;5.39;60.02
75146;BME280;63641;46.526;24.612;2023-02-15T13:33:06;98593.47;;;5.44;59.92
75146;BME280;63641;46.526;24.612;2023-02-15T13:38:42;98588.88;;;5.51;59.92
75146;BME280;63641;46.526;24.612;2023-02-15T13:41:17;98590.13;;;5.48;59.85
75146;BME280;63641;46.526;24.612;2023-02-15T13:47:06;98585.81;;;5.47;59.72
75146;BME280;63641;46.526;24.612;2023-02-15T13:52:26;98588.31;;;5.49;59.33
75146;BME280;63641;46.526;24.612;2023-02-15T13:57:53;98586.50;;;5.36;59.50
75146;BME280;63641;46.526;24.612;2023-02-15T14:09:02;98583.44;;;5.32;59.54
75146;BME280;63641;46.526;24.612;2023-02-15T14:11:49;98584.25;;;5.33;59.55
75146;BME280;63641;46.526;24.612;2023-02-15T14:14:59;98586.75;;;5.35;59.55
75146;BME280;63641;46.526;24.612;2023-02-15T14:29:20;98586.84;;;5.15;59.63
75146;BME280;63641;46.526;24.612;2023-02-15T14:32:04;98582.75;;;5.12;59.57
75146;BME280;63641;46.526;24.612;2023-02-15T14:34:53;98586.88;;;5.08;59.67
75146;BME280;63641;46.526;24.612;2023-02-15T14:37:39;98583.84;;;5.04;59.52
75146;BME280;63641;46.526;24.612;2023-02-15T14:40:47;98592.50;;;5.00;59.75
75146;BME280;63641;46.526;24.612;2023-02-15T14:43:41;98587.78;;;4.95;59.56
75146;BME280;63641;46.526;24.612;2023-02-15T14:48:57;98586.81;;;4.83;59.84
75146;BME280;63641;46.526;24.612;2023-02-15T15:02:19;98587.69;;;4.64;60.23
75146;BME280;63641;46.526;24.612;2023-02-15T15:07:28;98582.59;;;4.49;60.46
75146;BME280;63641;46.526;24.612;2023-02-15T15:10:32;98585.91;;;4.44;60.48
75146;BME280;63641;46.526;24.612;2023-02-15T15:15:56;98588.44;;;4.32;61.10
75146;BME280;63641;46.526;24.612;2023-02-15T15:18:48;98584.72;;;4.27;61.16
75146;BME280;63641;46.526;24.612;2023-02-15T15:27:41;98594.44;;;4.01;61.53
75146;BME280;63641;46.526;24.612;2023-02-15T15:49:19;98598.97;;;3.41;62.59
75146;BME280;63641;46.526;24.612;2023-02-15T15:51:46;98597.97;;;3.35;62.45
75146;BME280;63641;46.526;24.612;2023-02-15T15:54:25;98610.28;;;3.30;62.48
75146;BME280;63641;46.526;24.612;2023-02-15T15:56:58;98600.38;;;3.24;62.58
75146;BME280;63641;46.526;24.612;2023-02-15T15:59:28;98602.84;;;3.19;62.70
75146;BME280;63641;46.526;24.612;2023-02-15T16:02:03;98608.81;;;3.14;62.91
75146;BME280;63641;46.526;24.612;2023-02-15T16:04:33;98607.75;;;3.08;62.81
75146;BME280;63641;46.526;24.612;2023-02-15T16:07:33;98608.16;;;2.99;63.20
75146;BME280;63641;46.526;24.612;2023-02-15T16:10:02;98611.19;;;2.89;63.20
75146;BME280;63641;46.526;24.612;2023-02-15T16:12:32;98605.41;;;2.79;63.41
75146;BME280;63641;46.526;24.612;2023-02-15T16:15:16;98611.94;;;2.70;63.47